createdAt,value
2022-12-23T00:01:07.789Z,8.47
2022-12-23T00:03:34.179Z,8.59
2022-12-23T00:06:00.703Z,8.69
2022-12-23T00:08:26.986Z,8.69
2022-12-23T00:10:53.247Z,8.69
2022-12-23T00:13:19.515Z,8.69
2022-12-23T00:15:45.778Z,8.60
2022-12-23T00:18:12.074Z,8.70
2022-12-23T00:20:38.343Z,8.77
2022-12-23T00:23:04.633Z,8.85
2022-12-23T00:25:30.880Z,8.84
2022-12-23T00:27:57.152Z,9.04
2022-12-23T00:30:23.418Z,9.04
2022-12-23T00:32:49.668Z,8.97
2022-12-23T00:35:16.019Z,9.08
2022-12-23T00:37:42.280Z,9.18
2022-12-23T00:40:08.541Z,9.25
2022-12-23T00:42:34.785Z,9.33
2022-12-23T00:45:01.038Z,9.35
2022-12-23T00:47:27.303Z,9.45
2022-12-23T00:49:53.547Z,9.55
2022-12-23T00:52:19.803Z,9.60
2022-12-23T00:54:46.074Z,9.67
2022-12-23T00:57:12.360Z,9.65
2022-12-23T00:59:38.596Z,9.64
2022-12-23T01:02:05.049Z,9.64
2022-12-23T01:04:31.489Z,9.61
2022-12-23T01:06:57.725Z,9.68
2022-12-23T01:09:23.999Z,9.71
2022-12-23T01:11:50.247Z,9.68
2022-12-23T01:14:16.527Z,9.77
2022-12-23T01:16:42.826Z,9.71
2022-12-23T01:19:09.093Z,9.78
2022-12-23T01:21:35.349Z,9.82
2022-12-23T01:24:01.609Z,9.85
2022-12-23T01:26:27.867Z,9.90
2022-12-23T01:28:54.145Z,9.94
2022-12-23T01:31:20.425Z,9.90
2022-12-23T01:33:46.742Z,9.88
2022-12-23T01:36:13.005Z,9.92
2022-12-23T01:38:39.270Z,9.94
2022-12-23T01:41:05.515Z,9.99
2022-12-23T01:43:31.770Z,10.00
2022-12-23T01:45:58.051Z,10.00
2022-12-23T01:48:24.351Z,10.06
2022-12-23T01:50:50.627Z,10.01
2022-12-23T01:53:16.885Z,10.03
2022-12-23T01:55:43.146Z,10.04
2022-12-23T01:58:09.413Z,10.09
2022-12-23T02:00:35.698Z,10.10
2022-12-23T02:03:02.053Z,10.08
2022-12-23T02:05:28.353Z,10.04
2022-12-23T02:07:54.620Z,10.03
2022-12-23T02:10:20.990Z,10.03
2022-12-23T02:12:47.283Z,10.02
2022-12-23T02:15:13.522Z,10.03
2022-12-23T02:17:39.756Z,10.06
2022-12-23T02:20:06.030Z,10.07
2022-12-23T02:22:32.305Z,10.04
2022-12-23T02:24:58.604Z,10.04
2022-12-23T02:27:24.844Z,10.04
2022-12-23T02:29:51.158Z,9.93
2022-12-23T02:32:17.427Z,9.90
2022-12-23T02:34:43.697Z,9.91
2022-12-23T02:37:09.959Z,9.89
2022-12-23T02:39:36.213Z,9.93
2022-12-23T02:42:02.510Z,9.96
2022-12-23T02:44:28.769Z,9.94
2022-12-23T02:46:55.042Z,9.96
2022-12-23T02:49:21.281Z,9.98
2022-12-23T02:51:47.520Z,9.96
2022-12-23T02:54:13.805Z,9.94
2022-12-23T02:56:40.108Z,9.93
2022-12-23T02:59:06.364Z,9.99
2022-12-23T03:01:32.697Z,9.97
2022-12-23T03:03:59.092Z,9.94
2022-12-23T03:06:25.447Z,9.90
2022-12-23T03:08:51.717Z,9.92
2022-12-23T03:11:17.998Z,9.98
2022-12-23T03:13:44.272Z,9.92
2022-12-23T03:16:10.602Z,9.92
2022-12-23T03:18:36.882Z,9.86
2022-12-23T03:21:03.130Z,9.91
2022-12-23T03:23:29.391Z,9.88
2022-12-23T03:25:55.663Z,9.85
2022-12-23T03:28:21.925Z,9.87
2022-12-23T03:30:48.209Z,9.87
2022-12-23T03:33:14.483Z,9.89
2022-12-23T03:35:40.752Z,9.88
2022-12-23T03:38:06.996Z,9.85
2022-12-23T03:40:33.268Z,9.90
2022-12-23T03:42:59.508Z,9.93
2022-12-23T03:45:38.618Z,9.92
2022-12-23T03:48:05.874Z,9.91
2022-12-23T03:50:32.148Z,9.91
2022-12-23T03:52:58.479Z,9.90
2022-12-23T03:55:24.754Z,9.93
2022-12-23T03:57:51.007Z,9.96
2022-12-23T04:00:17.263Z,9.96
2022-12-23T04:02:43.573Z,9.92
2022-12-23T04:05:09.917Z,9.90
2022-12-23T04:07:36.189Z,9.90
2022-12-23T04:10:02.447Z,9.87
2022-12-23T04:12:28.706Z,9.89
2022-12-23T04:14:54.998Z,9.88
2022-12-23T04:17:21.293Z,9.84
2022-12-23T04:19:47.551Z,9.78
2022-12-23T04:22:13.842Z,9.77
2022-12-23T04:24:40.101Z,9.76
2022-12-23T04:27:06.371Z,9.75
2022-12-23T04:29:32.629Z,9.70
2022-12-23T04:31:58.951Z,9.70
2022-12-23T04:34:25.325Z,9.70
2022-12-23T04:36:51.579Z,9.69
2022-12-23T04:39:17.832Z,9.67
2022-12-23T04:41:44.089Z,9.69
2022-12-23T04:44:10.360Z,9.67
2022-12-23T04:46:36.670Z,9.71
2022-12-23T04:49:02.997Z,9.71
2022-12-23T04:51:29.268Z,9.69
2022-12-23T04:53:55.533Z,9.68
2022-12-23T04:56:21.801Z,9.68
2022-12-23T04:58:48.081Z,9.69
2022-12-23T05:01:14.423Z,9.75
2022-12-23T05:03:40.762Z,9.76
2022-12-23T05:06:07.051Z,9.76
2022-12-23T05:08:33.300Z,9.81
2022-12-23T05:10:59.580Z,9.88
2022-12-23T05:13:25.848Z,9.95
2022-12-23T05:15:52.207Z,9.93
2022-12-23T05:18:18.543Z,9.91
2022-12-23T05:20:44.814Z,9.90
2022-12-23T05:23:11.067Z,9.91
2022-12-23T05:25:37.335Z,9.92
2022-12-23T05:28:03.637Z,9.89
2022-12-23T05:30:29.901Z,9.88
2022-12-23T05:32:56.144Z,9.85
2022-12-23T05:35:22.434Z,9.87
2022-12-23T05:37:48.691Z,9.91
2022-12-23T05:40:18.485Z,9.90
2022-12-23T05:42:47.964Z,9.88
2022-12-23T05:45:14.212Z,9.90
2022-12-23T05:47:40.474Z,9.92
2022-12-23T05:50:07.227Z,9.87
2022-12-23T05:52:33.598Z,9.84
2022-12-23T05:54:59.892Z,9.85
2022-12-23T05:57:26.138Z,9.83
2022-12-23T05:59:52.391Z,9.83
2022-12-23T06:02:18.831Z,9.86
2022-12-23T06:04:45.189Z,9.86
2022-12-23T06:07:11.482Z,9.84
2022-12-23T06:09:37.732Z,9.84
2022-12-23T06:12:03.993Z,9.84
2022-12-23T06:14:30.263Z,9.86
2022-12-23T06:16:56.595Z,9.83
2022-12-23T06:19:22.872Z,9.83
2022-12-23T06:21:49.145Z,9.86
2022-12-23T06:24:15.421Z,9.87
2022-12-23T06:26:41.672Z,9.86
2022-12-23T06:29:07.940Z,9.85
2022-12-23T06:31:34.263Z,9.87
2022-12-23T06:34:00.595Z,9.85
2022-12-23T06:36:26.883Z,9.82
2022-12-23T06:38:53.143Z,9.80
2022-12-23T06:41:19.429Z,9.84
2022-12-23T06:43:49.850Z,9.83
2022-12-23T06:46:18.899Z,9.86
2022-12-23T06:48:45.232Z,9.84
2022-12-23T06:51:11.473Z,9.82
2022-12-23T06:53:37.732Z,9.82
2022-12-23T06:56:03.999Z,9.85
2022-12-23T06:58:30.265Z,9.88
2022-12-23T07:00:56.531Z,9.91
2022-12-23T07:03:22.851Z,9.91
2022-12-23T07:05:49.192Z,9.93
2022-12-23T07:08:15.460Z,9.91
2022-12-23T07:10:41.710Z,9.90
2022-12-23T07:13:07.941Z,9.94
2022-12-23T07:15:34.217Z,9.94
2022-12-23T07:18:00.478Z,9.93
2022-12-23T07:20:26.712Z,9.88
2022-12-23T07:22:52.968Z,9.89
2022-12-23T07:25:19.241Z,9.91
2022-12-23T07:27:45.499Z,9.86
2022-12-23T07:30:11.757Z,9.79
2022-12-23T07:32:38.027Z,9.77
2022-12-23T07:35:04.272Z,9.77
2022-12-23T07:37:30.633Z,9.80
2022-12-23T07:39:56.886Z,9.74
2022-12-23T07:45:09.376Z,9.74
2022-12-23T07:47:35.625Z,9.78
2022-12-23T07:50:01.914Z,9.80
2022-12-23T07:52:28.189Z,9.77
2022-12-23T07:54:54.449Z,9.73
2022-12-23T07:57:20.690Z,9.78
2022-12-23T07:59:46.947Z,9.79
2022-12-23T08:02:13.387Z,9.77
2022-12-23T08:04:45.802Z,9.78
2022-12-23T08:07:12.669Z,9.78
2022-12-23T08:09:38.954Z,9.82
2022-12-23T08:12:05.240Z,9.85
2022-12-23T08:14:31.501Z,9.75
2022-12-23T08:16:57.812Z,9.81
2022-12-23T08:19:24.081Z,9.75
2022-12-23T08:21:50.331Z,9.70
2022-12-23T08:24:16.608Z,9.67
2022-12-23T08:26:42.889Z,9.70
2022-12-23T08:29:09.158Z,9.78
2022-12-23T08:31:35.479Z,9.80
2022-12-23T08:34:01.784Z,9.80
2022-12-23T08:36:28.061Z,9.82
2022-12-23T08:38:54.313Z,9.84
2022-12-23T08:41:20.605Z,9.86
2022-12-23T08:43:46.870Z,9.88
2022-12-23T08:46:13.143Z,9.91
2022-12-23T08:48:42.588Z,9.96
2022-12-23T08:51:13.299Z,9.97
2022-12-23T08:53:39.566Z,10.00
2022-12-23T08:56:05.868Z,10.02
2022-12-23T08:58:32.125Z,10.04
2022-12-23T09:00:58.400Z,10.07
2022-12-23T09:03:24.779Z,10.09
2022-12-23T09:05:51.217Z,10.10
2022-12-23T09:08:17.517Z,10.14
2022-12-23T09:10:43.767Z,10.13
2022-12-23T09:13:10.020Z,10.13
2022-12-23T09:15:36.293Z,10.14
2022-12-23T09:18:02.553Z,10.16
2022-12-23T09:20:28.811Z,10.18
2022-12-23T09:22:55.051Z,10.21
2022-12-23T09:25:21.318Z,10.22
2022-12-23T09:27:47.591Z,10.23
2022-12-23T09:30:13.843Z,10.25
2022-12-23T09:32:41.154Z,10.27
2022-12-23T09:35:07.416Z,10.31
2022-12-23T09:37:33.681Z,10.32
2022-12-23T09:39:59.959Z,10.33
2022-12-23T09:42:26.243Z,10.34
2022-12-23T09:44:52.510Z,10.35
2022-12-23T09:47:18.796Z,10.38
2022-12-23T09:49:45.052Z,10.38
2022-12-23T09:52:11.326Z,10.40
2022-12-23T09:54:37.620Z,10.44
2022-12-23T09:57:03.879Z,10.45
2022-12-23T09:59:30.125Z,10.45
2022-12-23T10:01:56.493Z,10.46
2022-12-23T10:04:22.973Z,10.49
2022-12-23T10:06:49.289Z,10.48
2022-12-23T10:09:15.548Z,10.47
2022-12-23T10:11:41.813Z,10.44
2022-12-23T10:14:08.081Z,10.47
2022-12-23T10:16:34.380Z,10.51
2022-12-23T10:19:00.665Z,10.51
2022-12-23T10:21:26.940Z,10.53
2022-12-23T10:23:53.239Z,10.61
2022-12-23T10:26:19.523Z,10.59
2022-12-23T10:28:45.776Z,10.65
2022-12-23T10:31:38.536Z,10.67
2022-12-23T10:33:58.287Z,10.68
2022-12-23T10:36:24.634Z,10.66
2022-12-23T10:38:50.961Z,10.65
2022-12-23T10:41:17.229Z,10.73
2022-12-23T10:43:43.501Z,10.71
2022-12-23T10:46:09.788Z,10.70
2022-12-23T10:48:36.037Z,10.76
2022-12-23T10:51:03.036Z,10.78
2022-12-23T10:53:29.290Z,10.82
2022-12-23T10:55:55.589Z,10.81
2022-12-23T10:58:21.842Z,10.81
2022-12-23T11:00:48.203Z,10.80
2022-12-23T11:03:14.634Z,10.82
2022-12-23T11:05:41.014Z,10.78
2022-12-23T11:08:07.532Z,10.81
2022-12-23T11:10:33.885Z,10.80
2022-12-23T11:13:00.156Z,10.78
2022-12-23T11:15:26.439Z,10.79
2022-12-23T11:17:52.740Z,10.81
2022-12-23T11:20:19.083Z,10.77
2022-12-23T11:22:45.352Z,10.76
2022-12-23T11:25:11.637Z,10.75
2022-12-23T11:27:37.907Z,10.73
2022-12-23T11:30:04.155Z,10.52
2022-12-23T11:32:30.440Z,10.62
2022-12-23T11:34:56.746Z,10.56
2022-12-23T11:37:23.050Z,10.74
2022-12-23T11:39:49.324Z,10.60
2022-12-23T11:42:15.618Z,10.75
2022-12-23T11:44:41.928Z,10.67
2022-12-23T11:47:08.208Z,10.73
2022-12-23T11:49:34.476Z,10.75
2022-12-23T11:52:00.759Z,10.80
2022-12-23T11:54:27.030Z,10.74
2022-12-23T11:56:53.351Z,10.78
2022-12-23T11:59:19.641Z,10.86
2022-12-23T12:01:46.000Z,10.85
2022-12-23T12:04:12.335Z,10.81
2022-12-23T12:06:38.649Z,10.73
2022-12-23T12:09:04.915Z,10.73
2022-12-23T12:11:31.181Z,10.70
2022-12-23T12:13:57.457Z,10.88
2022-12-23T12:16:23.810Z,10.86
2022-12-23T12:18:55.163Z,10.94
2022-12-23T12:21:22.033Z,10.95
2022-12-23T12:23:48.352Z,10.76
2022-12-23T12:26:14.644Z,10.78
2022-12-23T12:28:40.917Z,10.74
2022-12-23T12:31:07.269Z,10.78
2022-12-23T12:33:33.531Z,10.67
2022-12-23T12:36:05.157Z,10.77
2022-12-23T12:38:31.823Z,10.85
2022-12-23T12:40:58.146Z,10.84
2022-12-23T12:43:24.531Z,10.75
2022-12-23T12:45:50.948Z,10.84
2022-12-23T12:48:18.932Z,10.77
2022-12-23T12:50:45.377Z,10.84
2022-12-23T12:53:11.755Z,10.92
2022-12-23T12:55:38.016Z,10.95
2022-12-23T12:58:04.358Z,10.96
2022-12-23T13:00:30.645Z,11.08
2022-12-23T13:02:57.020Z,11.11
2022-12-23T13:05:23.338Z,11.16
2022-12-23T13:07:49.616Z,11.19
2022-12-23T13:10:15.904Z,11.35
2022-12-23T13:12:42.162Z,11.38
2022-12-23T13:15:08.423Z,11.39
2022-12-23T13:17:34.685Z,11.47
2022-12-23T13:20:00.956Z,11.40
2022-12-23T13:22:27.220Z,11.40
2022-12-23T13:24:53.486Z,11.50
2022-12-23T13:27:19.745Z,11.40
2022-12-23T13:29:46.027Z,11.48
2022-12-23T13:32:12.274Z,11.45
2022-12-23T13:34:38.545Z,11.45
2022-12-23T13:37:04.840Z,11.41
2022-12-23T13:39:31.217Z,11.39
2022-12-23T13:42:04.584Z,11.27
2022-12-23T13:44:31.649Z,11.26
2022-12-23T13:46:57.936Z,11.25
2022-12-23T13:49:24.195Z,11.23
2022-12-23T13:51:50.445Z,11.20
2022-12-23T13:54:16.742Z,11.27
2022-12-23T13:56:43.038Z,11.27
2022-12-23T13:59:09.365Z,11.26
2022-12-23T14:01:35.689Z,11.27
2022-12-23T14:04:01.949Z,11.16
2022-12-23T14:06:28.362Z,11.28
2022-12-23T14:08:54.612Z,11.25
2022-12-23T14:11:20.882Z,11.21
2022-12-23T14:13:47.170Z,11.30
2022-12-23T14:16:13.560Z,11.28
2022-12-23T14:18:39.920Z,11.34
2022-12-23T14:21:06.168Z,11.32
2022-12-23T14:23:32.427Z,11.19
2022-12-23T14:25:58.689Z,11.16
2022-12-23T14:28:24.966Z,11.17
2022-12-23T14:30:51.392Z,11.23
2022-12-23T14:33:17.670Z,11.27
2022-12-23T14:35:43.939Z,11.35
2022-12-23T14:38:10.207Z,11.40
2022-12-23T14:40:36.485Z,11.25
2022-12-23T14:43:03.276Z,11.30
2022-12-23T14:45:29.569Z,11.29
2022-12-23T14:47:55.835Z,11.31
2022-12-23T14:50:22.084Z,11.28
2022-12-23T14:52:48.457Z,11.28
2022-12-23T14:55:30.124Z,11.37
2022-12-23T14:57:57.289Z,11.24
2022-12-23T15:00:23.577Z,11.27
2022-12-23T15:02:49.899Z,11.25
2022-12-23T15:05:16.208Z,11.37
2022-12-23T15:07:42.600Z,11.32
2022-12-23T15:10:08.895Z,11.29
2022-12-23T15:12:35.164Z,11.36
2022-12-23T15:15:01.436Z,11.29
2022-12-23T15:17:27.710Z,11.25
2022-12-23T15:19:53.968Z,11.27
2022-12-23T15:22:25.638Z,11.29
2022-12-23T15:24:56.470Z,11.39
2022-12-23T15:27:27.959Z,11.36
2022-12-23T15:29:55.457Z,11.44
2022-12-23T15:32:21.723Z,11.45
2022-12-23T15:34:47.988Z,11.46
2022-12-23T15:37:14.364Z,11.48
2022-12-23T15:39:40.718Z,11.49
2022-12-23T15:42:07.960Z,11.44
2022-12-23T15:44:34.396Z,11.43
2022-12-23T15:47:01.223Z,11.44
2022-12-23T15:49:27.808Z,11.50
2022-12-23T15:52:13.795Z,11.52
2022-12-23T15:54:40.797Z,11.52
2022-12-23T15:57:07.289Z,11.50
2022-12-23T15:59:33.784Z,11.54
2022-12-23T16:02:00.370Z,11.51
2022-12-23T16:04:27.010Z,11.36
2022-12-23T16:06:53.504Z,11.41
2022-12-23T16:09:19.939Z,11.33
2022-12-23T16:11:46.581Z,11.21
2022-12-23T16:14:13.162Z,11.16
2022-12-23T16:16:39.705Z,11.23
2022-12-23T16:19:06.203Z,11.16
2022-12-23T16:21:32.589Z,11.03
2022-12-23T16:23:59.073Z,11.15
2022-12-23T16:26:25.463Z,11.23
2022-12-23T16:28:51.798Z,11.27
2022-12-23T16:31:18.878Z,11.24
2022-12-23T16:33:45.376Z,11.16
2022-12-23T16:36:11.871Z,11.16
2022-12-23T16:38:38.327Z,11.00
2022-12-23T16:41:04.770Z,11.08
2022-12-23T16:43:31.087Z,10.97
2022-12-23T16:45:57.403Z,11.05
2022-12-23T16:48:23.732Z,11.02
2022-12-23T16:50:50.087Z,11.23
2022-12-23T16:53:16.329Z,11.19
2022-12-23T16:55:50.295Z,11.10
2022-12-23T16:58:18.910Z,11.14
2022-12-23T17:00:45.189Z,11.23
2022-12-23T17:03:11.469Z,11.13
2022-12-23T17:05:37.739Z,11.21
2022-12-23T17:08:04.033Z,11.28
2022-12-23T17:10:30.280Z,11.31
2022-12-23T17:12:56.551Z,11.26
2022-12-23T17:15:22.810Z,11.09
2022-12-23T17:17:49.083Z,11.19
2022-12-23T17:20:15.342Z,11.17
2022-12-23T17:22:41.609Z,11.18
2022-12-23T17:25:07.998Z,11.23
2022-12-23T17:27:34.288Z,11.25
2022-12-23T17:30:00.573Z,11.12
2022-12-23T17:32:27.028Z,11.04
2022-12-23T17:34:53.338Z,11.14
2022-12-23T17:37:19.595Z,11.14
2022-12-23T17:39:45.870Z,11.13
2022-12-23T17:42:12.127Z,11.11
2022-12-23T17:44:38.404Z,11.13
2022-12-23T17:47:04.681Z,11.24
2022-12-23T17:49:30.983Z,11.17
2022-12-23T17:51:57.248Z,10.98
2022-12-23T17:54:23.522Z,10.84
2022-12-23T17:56:49.784Z,11.00
2022-12-23T17:59:16.069Z,10.97
2022-12-23T18:01:42.388Z,11.07
2022-12-23T18:04:08.720Z,10.93
2022-12-23T18:06:34.972Z,11.04
2022-12-23T18:09:01.232Z,10.86
2022-12-23T18:11:27.508Z,10.98
2022-12-23T18:13:53.779Z,11.00
2022-12-23T18:16:20.091Z,11.01
2022-12-23T18:18:47.176Z,11.06
2022-12-23T18:21:13.602Z,11.12
2022-12-23T18:23:39.868Z,11.26
2022-12-23T18:26:06.146Z,11.20
2022-12-23T18:28:32.438Z,11.24
2022-12-23T18:30:58.822Z,11.28
2022-12-23T18:33:25.123Z,11.26
2022-12-23T18:35:51.378Z,11.24
2022-12-23T18:38:17.708Z,11.24
2022-12-23T18:40:43.999Z,11.34
2022-12-23T18:43:10.263Z,11.36
2022-12-23T18:45:36.522Z,11.42
2022-12-23T18:48:02.795Z,11.49
2022-12-23T18:50:29.110Z,11.56
2022-12-23T18:52:55.360Z,11.39
2022-12-23T18:55:21.645Z,11.40
2022-12-23T18:57:47.912Z,11.45
2022-12-23T19:00:14.185Z,11.48
2022-12-23T19:02:40.498Z,11.45
2022-12-23T19:05:06.805Z,11.38
2022-12-23T19:07:33.080Z,11.36
2022-12-23T19:09:59.356Z,11.35
2022-12-23T19:12:25.629Z,11.39
2022-12-23T19:14:51.925Z,11.47
2022-12-23T19:17:18.198Z,11.52
2022-12-23T19:19:44.492Z,11.54
2022-12-23T19:22:10.763Z,11.57
2022-12-23T19:24:42.487Z,11.57
2022-12-23T19:27:18.226Z,11.62
2022-12-23T19:29:44.498Z,11.61
2022-12-23T19:32:10.752Z,11.61
2022-12-23T19:34:37.030Z,11.61
2022-12-23T19:37:03.696Z,11.52
2022-12-23T19:39:29.977Z,11.54
2022-12-23T19:41:56.254Z,11.50
2022-12-23T19:44:22.552Z,11.51
2022-12-23T19:46:48.900Z,11.48
2022-12-23T19:49:19.910Z,11.42
2022-12-23T19:51:46.718Z,11.48
2022-12-23T19:54:13.001Z,11.45
2022-12-23T19:56:39.249Z,11.39
2022-12-23T19:59:05.543Z,11.42
2022-12-23T20:01:31.905Z,11.45
2022-12-23T20:03:58.227Z,11.49
2022-12-23T20:06:24.510Z,11.53
2022-12-23T20:08:54.945Z,11.56
2022-12-23T20:11:24.429Z,11.59
2022-12-23T20:13:50.705Z,11.59
2022-12-23T20:16:17.075Z,11.61
2022-12-23T20:18:43.389Z,11.62
2022-12-23T20:21:09.671Z,11.61
2022-12-23T20:23:35.923Z,11.58
2022-12-23T20:26:02.163Z,11.59
2022-12-23T20:28:28.437Z,11.58
2022-12-23T20:30:54.761Z,11.58
2022-12-23T20:33:21.063Z,11.60
2022-12-23T20:35:47.334Z,11.59
2022-12-23T20:38:13.595Z,11.59
2022-12-23T20:40:39.860Z,11.60
2022-12-23T20:43:10.349Z,11.60
2022-12-23T20:45:39.697Z,11.61
2022-12-23T20:48:06.060Z,11.59
2022-12-23T20:50:32.350Z,11.63
2022-12-23T20:52:58.636Z,11.65
2022-12-23T20:55:24.908Z,11.65
2022-12-23T20:57:51.194Z,11.63
2022-12-23T21:00:17.467Z,11.58
2022-12-23T21:02:43.770Z,11.57
2022-12-23T21:05:10.090Z,11.58
2022-12-23T21:07:36.381Z,11.58
2022-12-23T21:10:02.650Z,11.52
2022-12-23T21:12:28.922Z,11.51
2022-12-23T21:14:55.182Z,11.48
2022-12-23T21:17:21.474Z,11.47
2022-12-23T21:19:47.736Z,11.34
2022-12-23T21:22:14.000Z,11.41
2022-12-23T21:24:40.249Z,11.42
2022-12-23T21:27:06.544Z,11.43
2022-12-23T21:29:32.830Z,11.53
2022-12-23T21:31:59.230Z,11.51
2022-12-23T21:34:25.624Z,11.50
2022-12-23T21:36:51.970Z,11.46
2022-12-23T21:39:18.287Z,11.55
2022-12-23T21:41:44.564Z,11.59
2022-12-23T21:44:10.833Z,11.60
2022-12-23T21:46:37.478Z,11.64
2022-12-23T21:49:03.761Z,11.57
2022-12-23T21:51:38.541Z,11.48
2022-12-23T21:54:05.593Z,11.55
2022-12-23T21:56:31.888Z,11.52
2022-12-23T21:58:58.148Z,11.61
2022-12-23T22:01:24.476Z,11.63
2022-12-23T22:03:50.781Z,11.60
2022-12-23T22:06:17.090Z,11.58
2022-12-23T22:08:43.378Z,11.60
2022-12-23T22:11:09.637Z,11.54
2022-12-23T22:13:35.942Z,11.50
2022-12-23T22:16:02.273Z,11.50
2022-12-23T22:18:28.560Z,11.62
2022-12-23T22:20:54.825Z,11.65
2022-12-23T22:23:21.102Z,11.52
2022-12-23T22:25:47.384Z,11.59
2022-12-23T22:28:13.646Z,11.73
2022-12-23T22:30:39.926Z,11.58
2022-12-23T22:33:06.197Z,11.61
2022-12-23T22:35:32.518Z,11.67
2022-12-23T22:37:58.802Z,11.72
2022-12-23T22:40:25.245Z,11.72
2022-12-23T22:42:51.537Z,11.77
2022-12-23T22:45:17.870Z,11.69
2022-12-23T22:47:44.409Z,11.73
2022-12-23T22:50:10.721Z,11.61
2022-12-23T22:52:36.993Z,11.54
2022-12-23T22:55:03.294Z,11.56
2022-12-23T22:57:29.602Z,11.57
2022-12-23T22:59:55.882Z,11.49
2022-12-23T23:02:22.145Z,11.47
2022-12-23T23:04:48.442Z,11.60
2022-12-23T23:07:14.724Z,11.59
2022-12-23T23:09:40.994Z,11.54
2022-12-23T23:12:07.282Z,11.65
2022-12-23T23:14:33.579Z,11.58
2022-12-23T23:16:59.933Z,11.49
2022-12-23T23:19:26.279Z,11.43
2022-12-23T23:21:52.571Z,11.32
2022-12-23T23:24:18.828Z,11.24
2022-12-23T23:26:45.080Z,11.12
2022-12-23T23:29:11.341Z,11.12
2022-12-23T23:31:42.776Z,11.04
2022-12-23T23:34:09.751Z,10.93
2022-12-23T23:36:36.045Z,10.89
2022-12-23T23:39:02.356Z,11.09
2022-12-23T23:41:28.620Z,11.16
2022-12-23T23:43:54.902Z,11.08
2022-12-23T23:46:21.302Z,11.18
2022-12-23T23:48:47.624Z,11.17
2022-12-23T23:51:13.890Z,11.12
2022-12-23T23:53:40.199Z,11.15
2022-12-23T23:56:06.537Z,11.29
2022-12-23T23:58:32.911Z,11.40
